createdAt,value
2023-04-15T00:00:50.413Z,73.3508
2023-04-15T00:01:51.118Z,72.8026
2023-04-15T00:02:52.215Z,72.7449
2023-04-15T00:03:53.401Z,73.9175
2023-04-15T00:04:53.374Z,73.7434
2023-04-15T00:05:54.310Z,73.2438
2023-04-15T00:06:55.022Z,73.2673
2023-04-15T00:07:55.460Z,73.9972
2023-04-15T00:08:56.122Z,73.4120
2023-04-15T00:09:56.625Z,73.5623
2023-04-15T00:10:57.217Z,73.6382
2023-04-15T00:11:57.851Z,74.3723
2023-04-15T00:12:58.424Z,74.0695
2023-04-15T00:13:59.129Z,74.1435
2023-04-15T00:14:59.833Z,74.3871
2023-04-15T00:16:00.489Z,74.5909
2023-04-15T00:17:01.574Z,75.0435
2023-04-15T00:18:02.402Z,75.2952
2023-04-15T00:19:03.297Z,75.6018
2023-04-15T00:20:04.213Z,75.0581
2023-04-15T00:21:04.689Z,74.8899
2023-04-15T00:22:05.365Z,74.8005
2023-04-15T00:23:06.103Z,74.8763
2023-04-15T00:24:06.603Z,74.7794
2023-04-15T00:25:07.451Z,74.9401
2023-04-15T00:26:08.432Z,74.9407
2023-04-15T00:27:09.080Z,74.5272
2023-04-15T00:28:09.979Z,74.4134
2023-04-15T00:29:10.859Z,74.4848
2023-04-15T00:30:11.408Z,74.5149
2023-04-15T00:31:12.724Z,74.8545
2023-04-15T00:32:13.379Z,75.5780
2023-04-15T00:33:14.113Z,75.3802
2023-04-15T00:34:14.723Z,75.7835
2023-04-15T00:35:15.206Z,76.2389
2023-04-15T00:36:16.003Z,76.5563
2023-04-15T00:37:16.497Z,76.6054
2023-04-15T00:38:17.114Z,76.7858
2023-04-15T00:39:17.894Z,77.1620
2023-04-15T00:40:18.521Z,77.1532
2023-04-15T00:41:19.313Z,77.9379
2023-04-15T00:42:19.997Z,78.2665
2023-04-15T00:43:20.583Z,78.1838
2023-04-15T00:44:21.197Z,78.4772
2023-04-15T00:45:21.691Z,78.8652
2023-04-15T00:46:22.840Z,78.8575
2023-04-15T00:47:23.613Z,78.8333
2023-04-15T00:48:24.412Z,78.8061
2023-04-15T00:49:25.170Z,79.0000
2023-04-15T00:50:25.842Z,79.1268
2023-04-15T00:51:26.523Z,78.8959
2023-04-15T00:52:27.291Z,78.7860
2023-04-15T00:53:27.885Z,78.7820
2023-04-15T00:54:28.658Z,78.7690
2023-04-15T00:55:29.291Z,78.6972
2023-04-15T00:56:29.870Z,78.6001
2023-04-15T00:57:30.749Z,78.5230
2023-04-15T00:58:31.348Z,78.5539
2023-04-15T00:59:32.126Z,78.2089
2023-04-15T01:00:32.656Z,77.9210
2023-04-15T01:01:33.288Z,77.7566
2023-04-15T01:02:33.748Z,77.9125
2023-04-15T01:03:35.364Z,77.8386
2023-04-15T01:04:35.348Z,77.8565
2023-04-15T01:05:36.398Z,77.9639
2023-04-15T01:06:37.019Z,77.7646
2023-04-15T01:07:37.959Z,77.6877
2023-04-15T01:08:39.037Z,77.8088
2023-04-15T01:09:39.639Z,77.4574
2023-04-15T01:10:40.621Z,76.1217
2023-04-15T01:11:41.230Z,75.4079
2023-04-15T01:12:41.952Z,74.9298
2023-04-15T01:13:42.726Z,74.9854
2023-04-15T01:14:43.626Z,74.6533
2023-04-15T01:15:44.328Z,74.5297
2023-04-15T01:16:45.510Z,75.1023
2023-04-15T01:17:46.167Z,74.4319
2023-04-15T01:18:46.188Z,74.0979
2023-04-15T01:19:46.323Z,73.8838
2023-04-15T01:20:47.099Z,73.3041
2023-04-15T01:21:47.772Z,73.4011
2023-04-15T01:22:48.271Z,73.1810
2023-04-15T01:23:48.916Z,72.9459
2023-04-15T01:24:49.670Z,72.6162
2023-04-15T01:25:50.174Z,72.6123
2023-04-15T01:26:51.055Z,72.2954
2023-04-15T01:27:52.036Z,72.7785
2023-04-15T01:28:52.639Z,73.5215
2023-04-15T01:29:53.375Z,73.7387
2023-04-15T01:30:53.997Z,74.1764
2023-04-15T01:31:55.066Z,74.2325
2023-04-15T01:32:55.590Z,73.8469
2023-04-15T01:33:56.258Z,73.8865
2023-04-15T01:34:57.370Z,73.8799
2023-04-15T01:35:58.188Z,73.9000
2023-04-15T01:36:58.824Z,74.0110
2023-04-15T01:37:59.663Z,73.8761
2023-04-15T01:39:00.347Z,73.9447
2023-04-15T01:40:00.542Z,74.6156
2023-04-15T01:41:01.261Z,75.1395
2023-04-15T01:42:01.930Z,75.5941
2023-04-15T01:43:02.762Z,75.4681
2023-04-15T01:44:03.528Z,75.5178
2023-04-15T01:45:04.079Z,75.3783
2023-04-15T01:46:04.805Z,75.2869
2023-04-15T01:47:06.128Z,74.9551
2023-04-15T01:48:07.192Z,74.9843
2023-04-15T01:49:08.486Z,74.7356
2023-04-15T01:50:09.114Z,74.7063
2023-04-15T01:51:09.814Z,74.8202
2023-04-15T01:52:10.532Z,74.7850
2023-04-15T01:53:11.423Z,75.0332
2023-04-15T01:54:11.899Z,75.9650
2023-04-15T01:55:12.544Z,75.2077
2023-04-15T01:56:14.717Z,75.1768
2023-04-15T01:57:13.651Z,74.9460
2023-04-15T01:58:14.504Z,75.3371
2023-04-15T01:59:14.970Z,75.3662
2023-04-15T02:00:15.668Z,74.7191
2023-04-15T02:01:16.773Z,74.4694
2023-04-15T02:02:17.941Z,74.2633
2023-04-15T02:03:18.479Z,75.4379
2023-04-15T02:04:19.449Z,75.8343
2023-04-15T02:05:20.135Z,75.6499
2023-04-15T02:06:20.799Z,75.3693
2023-04-15T02:07:21.288Z,75.6261
2023-04-15T02:08:21.952Z,75.8146
2023-04-15T02:09:23.049Z,76.4218
2023-04-15T02:10:23.517Z,75.9789
2023-04-15T02:11:24.127Z,75.4795
2023-04-15T02:12:24.546Z,75.4915
2023-04-15T02:13:25.165Z,75.4704
2023-04-15T02:14:26.087Z,75.7405
2023-04-15T02:15:26.602Z,76.1107
2023-04-15T02:16:27.596Z,76.0142
2023-04-15T02:17:28.721Z,76.2580
2023-04-15T02:18:29.599Z,76.5091
2023-04-15T02:19:30.452Z,76.4629
2023-04-15T02:20:31.178Z,76.6580
2023-04-15T02:21:31.819Z,76.6111
2023-04-15T02:22:32.765Z,76.5520
2023-04-15T02:23:33.208Z,76.4644
2023-04-15T02:24:33.937Z,76.6520
2023-04-15T02:25:34.559Z,76.8820
2023-04-15T02:26:34.870Z,77.0982
2023-04-15T02:27:35.585Z,77.3027
2023-04-15T02:28:36.091Z,77.2889
2023-04-15T02:29:36.868Z,78.1700
2023-04-15T02:30:37.679Z,78.4570
2023-04-15T02:31:38.206Z,78.8697
2023-04-15T02:32:39.220Z,78.3073
2023-04-15T02:33:40.069Z,76.8727
2023-04-15T02:34:40.600Z,76.3732
2023-04-15T02:35:41.498Z,76.0367
2023-04-15T02:36:41.887Z,75.8520
2023-04-15T02:37:42.672Z,75.7961
2023-04-15T02:38:43.339Z,76.2237
2023-04-15T02:39:43.865Z,75.6267
2023-04-15T02:40:44.669Z,75.9753
2023-04-15T02:41:45.398Z,75.9369
2023-04-15T02:42:45.948Z,76.6641
2023-04-15T02:43:46.624Z,77.1099
2023-04-15T02:44:47.131Z,77.2450
2023-04-15T02:45:47.867Z,77.2268
2023-04-15T02:46:48.912Z,76.5233
2023-04-15T02:47:49.519Z,76.1517
2023-04-15T02:48:50.185Z,76.5610
2023-04-15T02:49:50.977Z,76.3563
2023-04-15T02:50:52.007Z,76.3049
2023-04-15T02:51:51.863Z,75.9703
2023-04-15T02:52:52.334Z,76.4724
2023-04-15T02:53:52.981Z,76.3265
2023-04-15T02:54:53.762Z,76.3108
2023-04-15T02:55:54.467Z,76.5163
2023-04-15T02:56:55.278Z,76.4563
2023-04-15T02:57:56.256Z,76.2612
2023-04-15T02:58:56.703Z,76.2184
2023-04-15T02:59:57.670Z,76.3609
2023-04-15T03:00:58.289Z,75.8913
2023-04-15T03:01:59.419Z,75.8789
2023-04-15T03:02:59.633Z,75.8668
2023-04-15T03:04:00.938Z,75.7929
2023-04-15T03:05:00.991Z,76.4565
2023-04-15T03:06:01.519Z,77.1812
2023-04-15T03:07:02.046Z,77.1701
2023-04-15T03:08:03.397Z,77.8795
2023-04-15T03:10:03.656Z,77.9196
2023-04-15T03:11:04.163Z,78.2224
2023-04-15T03:12:05.081Z,77.4949
2023-04-15T03:13:05.434Z,77.4098
2023-04-15T03:14:06.182Z,77.1619
2023-04-15T03:15:06.642Z,77.5017
2023-04-15T03:16:07.677Z,77.4691
2023-04-15T03:17:08.435Z,77.4444
2023-04-15T03:18:09.139Z,77.7127
2023-04-15T03:19:10.438Z,77.8570
2023-04-15T03:20:11.405Z,78.1836
2023-04-15T03:21:11.934Z,78.2633
2023-04-15T03:22:12.566Z,78.2698
2023-04-15T03:23:13.198Z,77.5294
2023-04-15T03:24:13.673Z,77.0355
2023-04-15T03:25:14.401Z,77.1725
2023-04-15T03:26:15.182Z,77.5192
2023-04-15T03:27:15.603Z,78.2080
2023-04-15T03:28:16.360Z,78.3975
2023-04-15T03:29:16.737Z,78.5255
2023-04-15T03:30:17.463Z,78.1857
2023-04-15T03:31:18.151Z,77.8135
2023-04-15T03:32:18.989Z,77.6536
2023-04-15T03:33:19.926Z,77.2858
2023-04-15T03:34:20.608Z,77.2943
2023-04-15T03:35:21.210Z,77.2210
2023-04-15T03:36:21.760Z,77.2807
2023-04-15T03:37:22.320Z,77.0616
2023-04-15T03:38:22.818Z,77.0891
2023-04-15T03:39:24.062Z,76.8415
2023-04-15T03:40:24.565Z,77.0755
2023-04-15T03:41:25.243Z,77.1991
2023-04-15T03:42:25.915Z,77.6571
2023-04-15T03:43:26.922Z,77.6416
2023-04-15T03:44:27.633Z,77.4546
2023-04-15T03:45:28.088Z,77.5680
2023-04-15T03:46:29.244Z,77.8134
2023-04-15T03:47:30.018Z,78.1375
2023-04-15T03:48:30.580Z,77.9821
2023-04-15T03:49:31.828Z,77.6291
2023-04-15T03:50:32.397Z,77.5072
2023-04-15T03:51:33.042Z,77.4239
2023-04-15T03:52:33.722Z,77.3562
2023-04-15T03:53:34.473Z,77.5063
2023-04-15T03:54:35.040Z,77.5107
2023-04-15T03:55:35.552Z,77.7524
2023-04-15T03:56:35.992Z,76.9179
2023-04-15T03:57:36.640Z,77.1676
2023-04-15T03:58:37.479Z,77.0277
2023-04-15T03:59:38.554Z,77.1820
2023-04-15T04:00:39.163Z,77.5859
2023-04-15T04:01:39.848Z,77.7531
2023-04-15T04:02:40.227Z,77.9292
2023-04-15T04:03:41.035Z,77.6927
2023-04-15T04:04:41.546Z,77.6637
2023-04-15T04:05:42.288Z,77.8619
2023-04-15T04:06:43.044Z,77.8832
2023-04-15T04:07:44.018Z,77.9685
2023-04-15T04:08:44.544Z,78.1138
2023-04-15T04:09:47.154Z,78.0361
2023-04-15T04:10:46.793Z,78.2066
2023-04-15T04:11:47.389Z,78.0222
2023-04-15T04:12:48.051Z,78.2655
2023-04-15T04:13:48.489Z,78.7044
2023-04-15T04:14:49.152Z,78.4713
2023-04-15T04:15:49.941Z,78.2364
2023-04-15T04:16:50.080Z,78.3870
2023-04-15T04:17:51.105Z,78.8511
2023-04-15T04:18:51.608Z,78.2607
2023-04-15T04:19:52.307Z,78.0691
2023-04-15T04:20:53.031Z,78.4026
2023-04-15T04:21:53.528Z,78.6024
2023-04-15T04:22:54.189Z,78.3519
2023-04-15T04:23:54.866Z,78.6976
2023-04-15T04:24:55.254Z,78.7494
2023-04-15T04:25:55.882Z,78.7884
2023-04-15T04:26:56.527Z,78.6654
2023-04-15T04:27:57.064Z,79.2721
2023-04-15T04:28:57.719Z,79.4140
2023-04-15T04:29:58.173Z,79.1861
2023-04-15T04:30:58.665Z,78.9994
2023-04-15T04:31:59.650Z,79.0015
2023-04-15T04:33:00.505Z,78.8191
2023-04-15T04:34:01.104Z,77.9729
2023-04-15T04:35:01.555Z,77.6962
2023-04-15T04:36:02.378Z,77.3376
2023-04-15T04:37:02.977Z,76.9336
2023-04-15T04:38:03.518Z,76.4067
2023-04-15T04:39:04.483Z,76.4896
2023-04-15T04:40:05.178Z,76.5075
2023-04-15T04:41:05.674Z,76.6950
2023-04-15T04:42:06.249Z,76.5753
2023-04-15T04:43:06.835Z,76.4366
2023-04-15T04:44:07.441Z,75.4923
2023-04-15T04:45:08.222Z,75.7802
2023-04-15T04:47:09.554Z,74.2776
2023-04-15T04:48:10.421Z,74.8492
2023-04-15T04:49:11.397Z,74.2543
2023-04-15T04:50:12.085Z,74.7037
2023-04-15T04:51:12.783Z,74.8995
2023-04-15T04:52:13.350Z,75.2161
2023-04-15T04:53:14.036Z,75.2689
2023-04-15T04:54:14.871Z,74.9172
2023-04-15T04:55:15.800Z,75.0717
2023-04-15T04:56:16.383Z,74.9872
2023-04-15T04:57:16.850Z,75.5680
2023-04-15T04:58:17.530Z,75.7070
2023-04-15T04:59:19.918Z,75.3135
2023-04-15T05:00:20.469Z,75.3153
2023-04-15T05:01:21.277Z,75.1746
2023-04-15T05:02:21.837Z,75.0311
2023-04-15T05:03:22.071Z,74.9753
2023-04-15T05:04:22.037Z,75.6519
2023-04-15T05:05:22.487Z,75.3616
2023-04-15T05:06:23.315Z,75.4648
2023-04-15T05:07:23.995Z,75.3529
2023-04-15T05:08:24.548Z,75.3745
2023-04-15T05:09:25.788Z,75.5850
2023-04-15T05:10:26.436Z,75.2980
2023-04-15T05:11:26.884Z,75.2103
2023-04-15T05:12:27.720Z,75.9193
2023-04-15T05:13:28.126Z,75.8818
2023-04-15T05:14:29.217Z,76.0403
2023-04-15T05:15:29.875Z,75.7937
2023-04-15T05:16:30.529Z,76.0688
2023-04-15T05:17:31.475Z,76.3060
2023-04-15T05:18:32.145Z,76.3147
2023-04-15T05:19:33.198Z,75.8969
2023-04-15T05:20:33.874Z,75.9651
2023-04-15T05:21:34.437Z,76.7560
2023-04-15T05:22:34.922Z,77.1533
2023-04-15T05:23:35.819Z,77.3458
2023-04-15T05:24:36.286Z,77.5392
2023-04-15T05:25:36.418Z,77.4222
2023-04-15T05:26:37.042Z,76.9403
2023-04-15T05:27:37.647Z,76.4896
2023-04-15T05:28:38.517Z,76.0914
2023-04-15T05:29:39.307Z,75.7466
2023-04-15T05:30:39.844Z,75.7411
2023-04-15T05:31:40.740Z,75.5047
2023-04-15T05:32:41.839Z,75.0845
2023-04-15T05:33:42.425Z,75.7271
2023-04-15T05:34:43.267Z,75.2747
2023-04-15T05:35:43.736Z,75.5546
2023-04-15T05:36:44.352Z,75.5573
2023-04-15T05:37:45.077Z,76.0532
2023-04-15T05:38:45.543Z,76.0537
2023-04-15T05:39:46.910Z,75.4213
2023-04-15T05:40:46.603Z,75.6106
2023-04-15T05:41:47.295Z,74.5635
2023-04-15T05:42:47.990Z,74.6420
2023-04-15T05:43:48.436Z,74.6190
2023-04-15T05:44:49.293Z,74.4425
2023-04-15T05:45:50.209Z,74.5167
2023-04-15T05:46:50.759Z,74.7810
2023-04-15T05:47:51.616Z,74.8748
2023-04-15T05:48:53.396Z,74.7566
2023-04-15T05:49:53.361Z,74.7442
2023-04-15T05:50:54.099Z,74.9668
2023-04-15T05:51:54.714Z,74.0443
2023-04-15T05:52:55.412Z,73.7214
2023-04-15T05:53:56.184Z,73.8656
2023-04-15T05:54:56.745Z,74.0237
2023-04-15T05:55:57.487Z,74.3903
2023-04-15T05:56:58.400Z,74.2570
2023-04-15T05:57:58.953Z,73.9085
2023-04-15T05:58:59.800Z,73.9238
2023-04-15T06:00:00.567Z,73.9271
2023-04-15T06:01:01.085Z,73.0109
2023-04-15T06:02:01.852Z,72.8785
2023-04-15T06:03:03.077Z,73.4333
2023-04-15T06:04:03.688Z,72.8829
2023-04-15T06:05:03.792Z,73.0557
2023-04-15T06:06:04.413Z,72.9315
2023-04-15T06:07:05.148Z,72.7278
2023-04-15T06:08:05.842Z,73.1670
2023-04-15T06:09:06.019Z,73.1908
2023-04-15T06:10:06.854Z,72.7232
2023-04-15T06:11:07.335Z,72.2298
2023-04-15T06:12:08.176Z,72.9967
2023-04-15T06:13:08.808Z,73.2123
2023-04-15T06:14:09.373Z,72.7590
2023-04-15T06:15:10.204Z,72.9630
2023-04-15T06:16:11.509Z,73.0955
2023-04-15T06:17:12.392Z,73.4352
2023-04-15T06:18:13.357Z,73.8238
2023-04-15T06:19:15.142Z,73.0354
2023-04-15T06:20:14.482Z,72.6330
2023-04-15T06:21:15.487Z,72.7826
2023-04-15T06:22:16.017Z,72.7206
2023-04-15T06:23:16.870Z,72.6289
2023-04-15T06:24:17.560Z,72.4268
2023-04-15T06:25:18.201Z,72.5453
2023-04-15T06:26:18.911Z,72.0313
2023-04-15T06:27:19.435Z,70.7777
2023-04-15T06:28:19.971Z,70.5980
2023-04-15T06:29:20.907Z,70.8387
2023-04-15T06:30:23.496Z,71.3299
2023-04-15T06:31:22.671Z,70.9666
2023-04-15T06:32:23.730Z,71.1502
2023-04-15T06:33:24.578Z,70.4560
2023-04-15T06:34:25.778Z,70.1288
2023-04-15T06:35:26.815Z,69.6256
2023-04-15T06:36:27.616Z,69.9756
2023-04-15T06:37:28.395Z,69.9733
2023-04-15T06:38:29.460Z,70.3115
2023-04-15T06:39:29.953Z,69.4325
2023-04-15T06:40:30.827Z,70.3092
2023-04-15T06:41:31.440Z,69.2975
2023-04-15T06:42:32.155Z,69.9422
2023-04-15T06:43:32.773Z,69.9078
2023-04-15T06:44:34.029Z,68.9912
2023-04-15T06:45:33.678Z,67.7944
2023-04-15T06:46:34.657Z,67.9730
2023-04-15T06:47:35.465Z,68.4517
2023-04-15T06:48:36.143Z,68.8292
2023-04-15T06:49:36.727Z,69.1302
2023-04-15T06:50:37.443Z,69.6780
2023-04-15T06:51:37.922Z,70.0951
2023-04-15T06:52:38.834Z,69.4843
2023-04-15T06:53:39.579Z,69.6360
2023-04-15T06:54:40.146Z,69.8357
2023-04-15T06:55:41.049Z,68.7270
2023-04-15T06:56:41.873Z,68.4660
2023-04-15T06:57:42.481Z,69.2614
2023-04-15T06:58:43.279Z,69.3327
2023-04-15T06:59:44.335Z,68.6102
2023-04-15T07:00:44.948Z,69.2019
2023-04-15T07:01:46.009Z,69.8476
2023-04-15T07:02:46.121Z,69.6113
2023-04-15T07:03:46.966Z,69.0679
2023-04-15T07:04:47.912Z,69.0795
2023-04-15T07:05:48.461Z,68.9519
2023-04-15T07:06:49.320Z,69.0915
2023-04-15T07:07:49.995Z,69.5546
2023-04-15T07:08:50.738Z,69.4391
2023-04-15T07:09:51.864Z,68.9526
2023-04-15T07:10:52.794Z,68.4060
2023-04-15T07:11:53.781Z,68.6603
2023-04-15T07:12:54.988Z,68.9196
2023-04-15T07:13:55.807Z,68.3270
2023-04-15T07:14:56.686Z,68.4167
2023-04-15T07:15:56.878Z,68.3544
2023-04-15T07:16:58.165Z,69.1701
2023-04-15T07:17:59.805Z,68.3963
2023-04-15T07:19:01.331Z,68.9249
2023-04-15T07:21:01.471Z,69.7130
2023-04-15T07:22:02.368Z,69.7557
2023-04-15T07:23:03.108Z,69.3014
2023-04-15T07:24:03.241Z,69.8327
2023-04-15T07:25:04.262Z,70.3377
2023-04-15T07:26:04.452Z,70.1585
2023-04-15T07:27:05.525Z,70.8811
2023-04-15T07:28:06.289Z,71.0245
2023-04-15T07:29:07.817Z,71.3024
2023-04-15T07:30:08.177Z,71.6529
2023-04-15T07:31:08.997Z,71.0276
2023-04-15T07:32:10.226Z,71.0720
2023-04-15T07:33:10.237Z,71.6087
2023-04-15T07:34:10.980Z,71.6597
2023-04-15T07:35:12.044Z,71.0620
2023-04-15T07:36:12.873Z,71.2502
2023-04-15T07:37:13.915Z,71.5931
2023-04-15T07:38:14.923Z,71.9060
2023-04-15T07:39:15.713Z,72.0602
2023-04-15T07:40:16.852Z,72.3531
2023-04-15T07:41:17.601Z,72.6787
2023-04-15T07:42:18.306Z,72.5431
2023-04-15T07:43:19.014Z,72.7313
2023-04-15T07:44:20.031Z,73.2554
2023-04-15T07:45:20.703Z,73.1880
2023-04-15T07:46:21.023Z,73.2365
2023-04-15T07:47:21.289Z,73.4597
2023-04-15T07:48:21.322Z,73.4611
2023-04-15T07:49:22.441Z,73.3117
2023-04-15T07:50:23.202Z,72.6347
2023-04-15T07:51:24.343Z,73.1364
2023-04-15T07:52:25.200Z,73.3626
2023-04-15T07:53:25.980Z,73.5144
2023-04-15T07:54:26.831Z,73.2100
2023-04-15T07:55:28.428Z,73.4840
2023-04-15T07:56:29.003Z,73.4801
2023-04-15T07:57:29.820Z,73.6913
2023-04-15T07:58:30.876Z,73.2608
2023-04-15T07:59:31.884Z,73.2367
2023-04-15T08:00:33.093Z,73.2236
2023-04-15T08:01:33.960Z,73.3035
2023-04-15T08:02:34.269Z,72.9255
2023-04-15T08:03:34.623Z,72.9572
2023-04-15T08:04:35.886Z,72.4960
2023-04-15T08:05:36.694Z,72.5514
2023-04-15T08:06:37.517Z,72.7980
2023-04-15T08:07:38.124Z,73.0723
2023-04-15T08:08:38.920Z,72.8296
2023-04-15T08:09:39.787Z,72.3514
2023-04-15T08:10:40.430Z,72.1741
2023-04-15T08:11:41.440Z,72.2784
2023-04-15T08:12:42.824Z,72.5472
2023-04-15T08:13:45.027Z,71.9436
2023-04-15T08:14:45.445Z,71.9274
2023-04-15T08:15:46.545Z,71.4677
2023-04-15T08:16:47.818Z,71.7533
2023-04-15T08:17:49.085Z,71.4148
2023-04-15T08:18:50.056Z,70.9496
2023-04-15T08:19:51.225Z,71.1817
2023-04-15T08:20:51.872Z,71.1786
2023-04-15T08:21:52.728Z,71.2692
2023-04-15T08:22:53.901Z,70.7214
2023-04-15T08:23:54.886Z,70.6751
2023-04-15T08:24:55.782Z,70.5239
2023-04-15T08:25:56.059Z,71.0375
2023-04-15T08:26:56.951Z,70.3527
2023-04-15T08:27:57.862Z,69.9883
2023-04-15T08:28:58.690Z,69.4090
2023-04-15T08:29:59.023Z,69.9590
2023-04-15T08:30:59.551Z,69.6105
2023-04-15T08:32:00.785Z,68.3226
2023-04-15T08:33:01.672Z,68.5518
2023-04-15T08:34:02.548Z,67.6232
2023-04-15T08:35:03.344Z,67.1797
2023-04-15T08:36:04.192Z,67.6342
2023-04-15T08:37:05.096Z,68.6859
2023-04-15T08:38:06.018Z,68.6763
2023-04-15T08:39:06.830Z,68.7973
2023-04-15T08:40:07.670Z,68.9444
2023-04-15T08:41:08.426Z,68.6624
2023-04-15T08:42:08.511Z,68.8024
2023-04-15T08:43:09.053Z,68.0714
2023-04-15T08:44:09.550Z,67.7169
2023-04-15T08:45:10.746Z,68.2791
2023-04-15T08:46:11.916Z,68.5574
2023-04-15T08:47:13.086Z,69.0216
2023-04-15T08:48:13.619Z,68.7723
2023-04-15T08:49:14.918Z,68.9335
2023-04-15T08:50:16.090Z,69.2203
2023-04-15T08:52:16.493Z,69.1004
2023-04-15T08:53:17.478Z,68.2204
2023-04-15T08:54:18.295Z,66.8219
2023-04-15T08:55:18.364Z,66.4070
2023-04-15T08:56:18.748Z,66.0666
2023-04-15T08:57:19.206Z,66.2567
2023-04-15T08:58:19.279Z,65.8232
2023-04-15T08:59:20.433Z,65.9803
2023-04-15T09:00:20.830Z,66.3864
2023-04-15T09:01:21.898Z,68.2370
2023-04-15T09:02:23.189Z,69.2813
2023-04-15T09:03:23.894Z,70.7279
2023-04-15T09:04:23.761Z,72.0850
2023-04-15T09:05:24.755Z,72.3391
2023-04-15T09:07:25.652Z,73.0701
2023-04-15T09:08:26.794Z,72.9055
2023-04-15T09:09:27.656Z,72.8349
2023-04-15T09:10:28.707Z,74.6967
2023-04-15T09:11:29.581Z,75.0302
2023-04-15T09:12:30.491Z,75.4832
2023-04-15T09:13:30.734Z,75.0106
2023-04-15T09:14:31.547Z,75.1451
2023-04-15T09:15:32.710Z,76.1218
2023-04-15T09:16:33.919Z,77.2701
2023-04-15T09:17:35.035Z,77.3680
2023-04-15T09:18:35.442Z,76.1134
2023-04-15T09:19:35.392Z,77.8051
2023-04-15T09:20:36.160Z,76.1013
2023-04-15T09:21:37.184Z,76.8740
2023-04-15T09:22:37.474Z,77.2849
2023-04-15T09:24:38.031Z,75.4420
2023-04-15T09:25:38.088Z,76.1080
2023-04-15T09:26:38.955Z,76.1780
2023-04-15T09:27:39.443Z,74.8539
2023-04-15T09:28:39.647Z,74.6908
2023-04-15T09:29:40.781Z,75.5134
2023-04-15T09:30:41.649Z,74.4723
2023-04-15T09:31:41.846Z,72.1830
2023-04-15T09:32:43.293Z,72.8003
2023-04-15T09:34:43.144Z,70.9182
2023-04-15T09:35:44.028Z,70.2111
2023-04-15T09:36:44.827Z,70.2257
2023-04-15T09:37:45.616Z,68.6055
2023-04-15T09:38:46.340Z,69.3176
2023-04-15T09:39:47.151Z,70.5421
2023-04-15T09:40:48.240Z,73.4343
2023-04-15T09:41:49.669Z,74.4748
2023-04-15T09:42:52.441Z,72.8868
2023-04-15T09:43:53.540Z,72.0188
2023-04-15T09:44:53.579Z,71.6435
2023-04-15T09:45:54.533Z,72.9174
2023-04-15T09:46:55.254Z,74.1827
2023-04-15T09:47:57.084Z,72.1901
2023-04-15T09:48:56.909Z,72.3037
2023-04-15T09:49:57.867Z,71.0043
2023-04-15T09:50:57.798Z,70.5382
2023-04-15T09:52:04.469Z,70.4543
2023-04-15T09:52:58.731Z,69.3049
2023-04-15T09:53:59.687Z,66.8742
2023-04-15T09:54:59.627Z,64.6257
2023-04-15T09:56:00.152Z,65.4797
2023-04-15T09:57:01.008Z,65.4884
2023-04-15T09:58:01.758Z,65.3028
2023-04-15T09:59:02.782Z,64.7262
2023-04-15T10:00:03.726Z,63.9511
2023-04-15T10:01:04.905Z,65.3248
2023-04-15T10:02:06.061Z,66.1715
2023-04-15T10:03:06.921Z,63.4283
2023-04-15T10:04:07.459Z,64.2085
2023-04-15T10:05:08.219Z,65.4182
2023-04-15T10:06:08.355Z,65.9938
2023-04-15T10:07:09.479Z,67.7495
2023-04-15T10:08:10.573Z,67.9112
2023-04-15T10:09:11.736Z,67.3630
2023-04-15T10:10:12.752Z,68.1365
2023-04-15T10:11:13.890Z,68.4415
2023-04-15T10:12:15.036Z,69.2736
2023-04-15T10:13:15.834Z,69.2168
2023-04-15T10:14:16.859Z,71.5088
2023-04-15T10:15:17.898Z,69.8065
2023-04-15T10:16:18.695Z,71.8395
2023-04-15T10:17:19.823Z,71.6380
2023-04-15T10:18:20.864Z,71.5660
2023-04-15T10:19:21.720Z,72.1144
2023-04-15T10:20:22.668Z,72.0832
2023-04-15T10:21:23.327Z,72.4449
2023-04-15T10:22:24.433Z,72.5087
2023-04-15T10:23:24.695Z,72.3841
2023-04-15T10:24:25.366Z,71.2810
2023-04-15T10:25:26.571Z,72.4933
2023-04-15T10:26:27.151Z,70.9954
2023-04-15T10:27:27.935Z,71.4599
2023-04-15T10:28:28.700Z,70.1602
2023-04-15T10:29:29.958Z,70.3741
2023-04-15T10:30:31.177Z,69.8183
2023-04-15T10:31:32.468Z,70.3614
2023-04-15T10:32:33.428Z,70.0624
2023-04-15T10:33:34.501Z,68.8081
2023-04-15T10:34:34.714Z,69.5311
2023-04-15T10:35:35.332Z,69.4911
2023-04-15T10:36:36.394Z,68.9695
2023-04-15T10:37:37.060Z,68.9747
2023-04-15T10:38:37.874Z,69.1974
2023-04-15T10:39:39.008Z,69.3228
2023-04-15T10:40:39.585Z,69.5496
2023-04-15T10:41:40.264Z,68.4628
2023-04-15T10:43:51.208Z,67.3317
2023-04-15T10:44:51.408Z,68.5266
2023-04-15T10:45:52.562Z,68.6460
2023-04-15T10:46:53.108Z,67.7511
2023-04-15T10:47:54.452Z,67.1251
2023-04-15T10:48:55.220Z,68.2652
2023-04-15T10:49:56.111Z,68.3935
2023-04-15T10:50:57.069Z,68.0695
2023-04-15T10:51:57.679Z,69.8817
2023-04-15T10:52:57.689Z,73.4776
2023-04-15T10:53:58.787Z,73.5873
2023-04-15T10:54:59.511Z,73.3710
2023-04-15T10:56:00.300Z,72.8372
2023-04-15T10:57:00.929Z,73.4934
2023-04-15T10:58:01.576Z,71.7664
2023-04-15T10:59:02.532Z,71.3822
2023-04-15T11:00:03.764Z,71.5762
2023-04-15T11:01:04.532Z,71.2220
2023-04-15T11:02:04.717Z,71.5208
2023-04-15T11:03:05.356Z,70.9335
2023-04-15T11:04:07.818Z,71.1180
2023-04-15T11:05:08.831Z,71.4900
2023-04-15T11:06:08.726Z,72.1008
2023-04-15T11:07:09.750Z,72.8298
2023-04-15T11:08:10.801Z,71.4845
2023-04-15T11:09:12.474Z,71.4757
2023-04-15T11:11:13.340Z,70.4025
2023-04-15T11:12:13.789Z,70.3861
2023-04-15T11:13:20.036Z,69.4289
2023-04-15T11:14:20.805Z,69.9698
2023-04-15T11:15:21.774Z,69.4862
2023-04-15T11:16:22.910Z,69.0737
2023-04-15T11:17:23.316Z,69.0905
2023-04-15T11:18:23.578Z,69.9583
2023-04-15T11:19:24.694Z,70.5736
2023-04-15T11:20:24.590Z,70.9865
2023-04-15T11:21:41.620Z,71.1882
2023-04-15T11:22:42.788Z,72.8647
2023-04-15T11:23:43.011Z,73.4575
2023-04-15T11:24:43.349Z,73.4083
2023-04-15T11:25:44.252Z,73.7912
2023-04-15T11:26:44.082Z,74.2487
2023-04-15T11:27:44.848Z,74.6821
2023-04-15T11:28:45.611Z,74.9903
2023-04-15T11:29:46.644Z,75.1593
2023-04-15T11:30:47.369Z,74.7331
2023-04-15T11:31:48.384Z,74.9762
2023-04-15T11:32:49.644Z,75.1735
2023-04-15T11:33:50.863Z,74.7651
2023-04-15T11:34:51.662Z,74.6207
2023-04-15T11:35:52.245Z,74.6402
2023-04-15T11:36:53.471Z,74.5964
2023-04-15T11:37:54.212Z,74.2912
2023-04-15T11:38:55.043Z,73.6814
2023-04-15T11:39:55.903Z,73.4885
2023-04-15T11:40:57.270Z,73.8164
2023-04-15T11:41:58.022Z,74.1665
2023-04-15T11:42:58.228Z,73.8437
2023-04-15T11:43:59.296Z,74.3931
2023-04-15T11:44:59.871Z,73.3932
2023-04-15T11:46:01.010Z,73.5906
2023-04-15T11:47:02.044Z,74.1675
2023-04-15T11:48:03.089Z,73.3748
2023-04-15T11:49:03.705Z,73.3542
2023-04-15T11:50:04.556Z,73.6605
2023-04-15T11:51:05.221Z,74.3796
2023-04-15T11:52:05.854Z,74.6094
2023-04-15T11:53:08.384Z,74.3353
2023-04-15T11:54:06.711Z,74.0080
2023-04-15T11:55:07.277Z,74.3872
2023-04-15T11:56:07.914Z,74.5765
2023-04-15T11:57:08.703Z,74.4850
2023-04-15T11:58:09.493Z,73.1301
2023-04-15T11:59:10.184Z,72.5263
2023-04-15T12:00:10.933Z,72.2258
2023-04-15T12:01:11.431Z,71.6611
2023-04-15T12:02:12.218Z,71.9165
2023-04-15T12:03:13.584Z,72.5082
2023-04-15T12:04:14.466Z,71.3096
2023-04-15T12:05:15.785Z,71.3299
2023-04-15T12:06:16.805Z,70.3141
2023-04-15T12:07:17.611Z,69.8794
2023-04-15T12:08:18.202Z,69.6120
2023-04-15T12:09:18.882Z,69.8388
2023-04-15T12:10:19.966Z,69.1837
2023-04-15T12:11:20.656Z,68.3335
2023-04-15T12:12:20.889Z,68.1453
2023-04-15T12:13:21.079Z,67.7318
2023-04-15T12:14:21.378Z,67.5781
2023-04-15T12:15:22.150Z,69.1033
2023-04-15T12:16:22.941Z,69.8057
2023-04-15T12:17:23.347Z,68.8507
2023-04-15T12:18:23.736Z,68.6665
2023-04-15T12:19:24.095Z,69.4095
2023-04-15T12:20:25.312Z,69.3010
2023-04-15T12:21:25.430Z,68.7834
2023-04-15T12:22:26.042Z,67.8184
2023-04-15T12:23:26.105Z,67.1617
2023-04-15T12:24:26.851Z,67.0218